Time;durP1;ratioP1;P1;durP2;ratioP2;P2;SDS_P1;SDS_P2;PMS_P1;PMS_P2;Temp;Humidity;BMP_temperature;BMP_pressure;BME280_temperature;BME280_humidity;BME280_pressure;Samples;Min_cycle;Max_cycle;Signal;HPM_P1;HPM_P2
2022/10/16 04:01:26;;;;;;;6.10;3.37;;;16.00;99.90;;;;;;5498177;23;20919;-73
2022/10/16 04:03:53;;;;;;;5.17;3.47;;;15.90;99.90;;;;;;4927936;29;20848;-74
2022/10/16 04:06:19;;;;;;;5.50;3.20;;;15.90;99.90;;;;;;4932726;29;20465;-74
2022/10/16 04:08:46;;;;;;;5.87;3.30;;;15.90;99.90;;;;;;4939774;29;20458;-74
2022/10/16 04:11:13;;;;;;;6.50;3.53;;;15.90;99.90;;;;;;4932974;28;21024;-74
2022/10/16 04:13:40;;;;;;;3.70;3.03;;;15.90;99.90;;;;;;4919896;29;20470;-74
2022/10/16 04:16:07;;;;;;;8.57;3.80;;;15.90;99.90;;;;;;4927730;29;20466;-71
2022/10/16 04:18:35;;;;;;;7.40;3.37;;;15.90;99.90;;;;;;4928219;29;20467;-74
2022/10/16 04:21:04;;;;;;;6.67;3.57;;;15.90;99.90;;;;;;4928090;29;20481;-74
2022/10/16 04:23:31;;;;;;;5.00;3.80;;;15.90;99.90;;;;;;4927844;29;20464;-74
2022/10/16 04:25:58;;;;;;;5.20;4.00;;;15.90;99.90;;;;;;4927487;29;20462;-73
2022/10/16 04:28:25;;;;;;;9.97;3.27;;;15.90;99.90;;;;;;4927994;29;20899;-74
2022/10/16 04:30:51;;;;;;;6.33;3.07;;;15.80;99.90;;;;;;4927705;29;21030;-74
2022/10/16 04:33:18;;;;;;;9.50;3.77;;;15.80;99.90;;;;;;4927773;29;20494;-73
2022/10/16 04:35:46;;;;;;;10.90;3.73;;;15.80;99.90;;;;;;4927164;29;20458;-72
2022/10/16 04:38:13;;;;;;;5.13;3.23;;;15.80;99.90;;;;;;4920456;29;20481;-74
2022/10/16 04:40:40;;;;;;;6.30;3.27;;;15.80;99.90;;;;;;4927870;29;20826;-74
2022/10/16 04:43:07;;;;;;;8.43;3.80;;;15.80;99.90;;;;;;4927582;29;21303;-74
2022/10/16 04:45:33;;;;;;;5.00;3.57;;;15.80;99.90;;;;;;4927480;29;20557;-72
2022/10/16 04:48:01;;;;;;;4.30;3.57;;;15.80;99.90;;;;;;4927902;29;20466;-73
2022/10/16 04:50:27;;;;;;;5.90;3.40;;;15.70;99.90;;;;;;4927304;29;20458;-74
2022/10/16 04:52:56;;;;;;;5.40;3.57;;;15.70;99.90;;;;;;4927487;29;20777;-72
2022/10/16 04:55:22;;;;;;;5.57;3.37;;;15.70;99.90;;;;;;4927101;29;20466;-73
2022/10/16 04:57:49;;;;;;;9.83;3.67;;;15.70;99.90;;;;;;4927631;29;20556;-74
2022/10/16 05:00:16;;;;;;;7.27;3.83;;;15.70;99.90;;;;;;4927613;29;20462;-73
2022/10/16 05:02:43;;;;;;;10.30;3.97;;;15.70;99.90;;;;;;4927653;29;20451;-74
2022/10/16 05:05:10;;;;;;;3.80;3.30;;;15.70;99.90;;;;;;4927526;29;20462;-73
2022/10/16 05:07:36;;;;;;;5.27;3.83;;;15.70;99.90;;;;;;4927207;29;20457;-74
2022/10/16 05:10:06;;;;;;;5.90;3.97;;;15.70;99.90;;;;;;4927541;29;20466;-73
2022/10/16 05:12:33;;;;;;;5.20;3.00;;;15.70;99.90;;;;;;4927219;29;20786;-74
2022/10/16 05:14:59;;;;;;;3.33;3.03;;;15.60;99.90;;;;;;4927084;29;20469;-74
2022/10/16 05:17:26;;;;;;;12.07;3.80;;;15.70;99.90;;;;;;4930366;29;20462;-73
2022/10/16 05:19:53;;;;;;;3.93;3.63;;;15.70;99.90;;;;;;4930909;29;20469;-73
2022/10/16 05:22:20;;;;;;;7.13;3.27;;;15.60;99.90;;;;;;4930992;29;20481;-72
2022/10/16 05:24:47;;;;;;;8.13;3.40;;;15.60;99.90;;;;;;4930688;29;20484;-74
2022/10/16 05:27:18;;;;;;;6.27;3.83;;;15.60;99.90;;;;;;4930953;29;20481;-74
2022/10/16 05:29:46;;;;;;;5.57;3.60;;;15.60;99.90;;;;;;4930794;29;20466;-74
2022/10/16 05:32:12;;;;;;;3.57;3.27;;;15.60;99.90;;;;;;4930793;29;20525;-74
2022/10/16 05:34:39;;;;;;;5.47;3.70;;;15.60;99.90;;;;;;4930040;29;20462;-72
2022/10/16 05:37:06;;;;;;;4.10;3.70;;;15.60;99.90;;;;;;4930722;29;20465;-74
2022/10/16 05:39:33;;;;;;;3.93;3.40;;;15.60;99.90;;;;;;4930139;29;20829;-74
2022/10/16 05:41:59;;;;;;;9.23;4.00;;;15.60;99.90;;;;;;4922852;29;20648;-74
2022/10/16 05:44:27;;;;;;;5.87;3.53;;;15.60;99.90;;;;;;4930268;29;20458;-74
2022/10/16 05:46:54;;;;;;;5.20;3.40;;;15.60;99.90;;;;;;4930813;29;20463;-74
2022/10/16 05:49:21;;;;;;;5.63;3.23;;;15.60;99.90;;;;;;4930381;29;20466;-73
2022/10/16 05:51:48;;;;;;;4.93;3.33;;;15.60;99.90;;;;;;4930489;29;20583;-74
2022/10/16 05:54:15;;;;;;;7.87;4.00;;;15.50;99.90;;;;;;4929971;29;20465;-74
2022/10/16 05:56:42;;;;;;;7.13;3.27;;;15.50;99.90;;;;;;4930387;29;20454;-74
2022/10/16 05:59:08;;;;;;;6.33;3.60;;;15.50;99.90;;;;;;4930349;29;20466;-72
2022/10/16 06:01:36;;;;;;;7.70;4.00;;;15.50;99.90;;;;;;4930491;29;20486;-73
2022/10/16 06:04:03;;;;;;;4.47;3.33;;;15.50;99.90;;;;;;4911308;29;20462;-71
2022/10/16 06:06:31;;;;;;;6.07;4.10;;;15.40;99.90;;;;;;4911905;29;20463;-70
2022/10/16 06:08:59;;;;;;;4.93;3.67;;;15.50;99.90;;;;;;4912629;29;20463;-75
2022/10/16 06:11:28;;;;;;;3.80;3.40;;;15.50;99.90;;;;;;4912686;29;20503;-77
2022/10/16 06:13:57;;;;;;;5.50;3.43;;;15.50;99.90;;;;;;4912229;29;20473;-70
2022/10/16 06:16:24;;;;;;;5.40;3.70;;;15.50;99.90;;;;;;4912050;29;20463;-70
2022/10/16 06:18:53;;;;;;;6.40;3.83;;;15.50;99.90;;;;;;4911888;29;20482;-73
2022/10/16 06:21:24;;;;;;;7.50;3.03;;;15.40;99.90;;;;;;4924278;29;21022;-71
2022/10/16 06:23:51;;;;;;;8.20;3.80;;;15.40;99.90;;;;;;4922741;29;20458;-72
2022/10/16 06:26:20;;;;;;;4.03;3.20;;;15.50;99.90;;;;;;4929611;29;20466;-74
2022/10/16 06:28:47;;;;;;;5.30;3.50;;;15.50;99.90;;;;;;4930213;29;20462;-74
2022/10/16 06:31:15;;;;;;;5.83;3.50;;;15.40;99.90;;;;;;4929899;29;20482;-74
2022/10/16 06:33:42;;;;;;;4.40;3.30;;;15.50;99.90;;;;;;4930376;29;20455;-71
2022/10/16 06:36:12;;;;;;;9.30;3.33;;;15.50;99.90;;;;;;4929430;29;20470;-73
2022/10/16 06:38:39;;;;;;;7.73;3.83;;;15.50;99.90;;;;;;4929820;29;20458;-74
2022/10/16 06:41:07;;;;;;;5.33;3.90;;;15.50;99.90;;;;;;4929778;29;21116;-74
2022/10/16 06:43:35;;;;;;;6.53;3.80;;;15.50;99.90;;;;;;4929948;29;20470;-74
2022/10/16 06:46:03;;;;;;;7.00;3.80;;;15.50;99.90;;;;;;4929356;29;20462;-72
2022/10/16 06:48:30;;;;;;;5.13;4.23;;;15.50;99.90;;;;;;4930055;29;20454;-74
2022/10/16 06:50:59;;;;;;;7.60;4.67;;;15.50;99.90;;;;;;4929909;29;20486;-74
2022/10/16 06:53:28;;;;;;;7.70;4.30;;;15.60;99.90;;;;;;4929314;29;20501;-74
2022/10/16 06:55:55;;;;;;;5.20;3.63;;;15.50;99.90;;;;;;4929034;29;20466;-74
2022/10/16 06:58:22;;;;;;;8.47;4.00;;;15.60;99.90;;;;;;4929021;29;20459;-75
2022/10/16 07:00:49;;;;;;;5.03;3.60;;;15.50;99.90;;;;;;4928219;29;20490;-74
2022/10/16 07:03:16;;;;;;;5.10;3.63;;;15.60;99.90;;;;;;4928902;29;20458;-75
2022/10/16 07:05:44;;;;;;;13.20;4.20;;;15.60;99.90;;;;;;4928220;29;20462;-74
2022/10/16 07:08:10;;;;;;;5.30;3.80;;;15.60;99.90;;;;;;4928254;29;20466;-73
2022/10/16 07:10:38;;;;;;;9.30;4.43;;;15.60;99.90;;;;;;4928565;29;20470;-75
2022/10/16 07:13:07;;;;;;;7.20;4.23;;;15.60;99.90;;;;;;4928219;29;20502;-75
2022/10/16 07:15:34;;;;;;;5.57;4.00;;;15.60;99.90;;;;;;4908675;29;20558;-75
2022/10/16 07:18:01;;;;;;;6.70;3.70;;;15.60;99.90;;;;;;4909076;29;21537;-75
2022/10/16 07:20:27;;;;;;;3.97;3.67;;;15.60;99.90;;;;;;4909667;29;20471;-75
2022/10/16 07:22:54;;;;;;;13.87;4.00;;;15.70;99.90;;;;;;4909298;29;20466;-75
2022/10/16 07:25:21;;;;;;;4.50;3.90;;;15.70;99.90;;;;;;4908209;29;20471;-75
2022/10/16 07:27:49;;;;;;;7.87;4.53;;;15.70;99.90;;;;;;4908984;29;20483;-72
2022/10/16 07:30:16;;;;;;;5.03;4.43;;;15.80;99.90;;;;;;4909249;29;20470;-74
2022/10/16 07:32:43;;;;;;;10.27;5.20;;;15.70;99.90;;;;;;4909556;29;20506;-75
2022/10/16 07:35:10;;;;;;;7.57;4.77;;;15.80;99.90;;;;;;4908287;29;20929;-75
2022/10/16 07:37:36;;;;;;;11.37;4.97;;;15.80;99.90;;;;;;4908469;29;20475;-72
2022/10/16 07:40:04;;;;;;;7.23;5.00;;;15.80;99.90;;;;;;4908340;29;20455;-76
2022/10/16 07:42:30;;;;;;;9.60;5.23;;;15.80;99.90;;;;;;4908742;29;20824;-76
2022/10/16 07:44:58;;;;;;;10.93;5.20;;;15.80;99.90;;;;;;4908355;29;21180;-72
2022/10/16 07:47:25;;;;;;;9.53;5.00;;;15.90;99.90;;;;;;4909349;29;20485;-76
2022/10/16 07:49:52;;;;;;;6.43;4.40;;;15.90;99.90;;;;;;4909216;29;20467;-76
2022/10/16 07:52:19;;;;;;;9.90;4.50;;;15.90;99.90;;;;;;4908136;29;20495;-76
2022/10/16 07:54:45;;;;;;;6.50;4.50;;;15.90;99.90;;;;;;4907921;29;20470;-76
2022/10/16 07:57:18;;;;;;;5.03;4.03;;;16.00;99.90;;;;;;4909658;29;20459;-73
2022/10/16 07:59:45;;;;;;;5.07;4.27;;;15.90;99.90;;;;;;4909530;29;20538;-73
2022/10/16 08:02:13;;;;;;;8.20;4.13;;;16.00;99.90;;;;;;4909047;29;20509;-73
2022/10/16 08:04:40;;;;;;;8.83;4.00;;;16.00;99.90;;;;;;4908488;29;20459;-73
2022/10/16 08:07:08;;;;;;;4.90;4.27;;;16.00;99.90;;;;;;4908990;29;20810;-76
2022/10/16 08:09:35;;;;;;;8.00;4.57;;;16.00;99.90;;;;;;4909521;29;20495;-76
2022/10/16 08:12:02;;;;;;;9.30;4.23;;;16.10;99.90;;;;;;4909547;29;20885;-76
2022/10/16 08:14:28;;;;;;;6.40;4.57;;;16.10;99.90;;;;;;4908691;29;20522;-75
2022/10/16 08:16:55;;;;;;;6.37;4.73;;;16.10;99.90;;;;;;4909259;29;20466;-74
2022/10/16 08:19:23;;;;;;;10.77;4.80;;;16.10;99.90;;;;;;4909620;29;20463;-75
2022/10/16 08:21:50;;;;;;;11.23;4.87;;;16.10;99.90;;;;;;4909492;29;20633;-76
2022/10/16 08:24:17;;;;;;;5.57;4.43;;;16.10;99.90;;;;;;4908748;29;20467;-75
2022/10/16 08:26:44;;;;;;;7.67;4.10;;;16.20;99.90;;;;;;4909302;29;20463;-76
2022/10/16 08:29:10;;;;;;;10.43;4.20;;;16.20;99.90;;;;;;4909252;29;21015;-76
2022/10/16 08:31:37;;;;;;;4.73;4.13;;;16.20;99.90;;;;;;4909135;29;20487;-77
2022/10/16 08:34:04;;;;;;;8.43;4.60;;;16.30;99.90;;;;;;4908798;29;20467;-74
2022/10/16 08:36:32;;;;;;;8.50;4.70;;;16.40;99.90;;;;;;4909392;29;20463;-73
2022/10/16 08:38:59;;;;;;;6.47;4.33;;;16.40;99.90;;;;;;4909634;29;20455;-76
2022/10/16 08:42:04;;;;;;;7.63;3.80;;;16.50;99.90;;;;;;4909402;29;20483;-76
2022/10/16 08:44:57;;;;;;;7.00;4.10;;;16.60;99.90;;;;;;4904790;29;20471;-76
2022/10/16 08:47:26;;;;;;;9.27;3.53;;;16.70;99.90;;;;;;4890293;29;20830;-76
2022/10/16 08:49:59;;;;;;;10.83;6.40;;;16.80;99.90;;;;;;4909403;29;20459;-76
2022/10/16 08:52:32;;;;;;;7.20;6.20;;;17.00;99.90;;;;;;4912285;29;20506;-76
2022/10/16 08:54:59;;;;;;;6.40;5.40;;;17.10;99.90;;;;;;4912752;29;20963;-74
2022/10/16 08:57:27;;;;;;;7.27;4.83;;;17.20;99.90;;;;;;4913015;29;20470;-76
2022/10/16 08:59:59;;;;;;;7.23;5.20;;;17.30;99.90;;;;;;4912611;29;20474;-75
2022/10/16 09:02:32;;;;;;;5.17;4.60;;;17.30;99.90;;;;;;4912642;29;20502;-76
2022/10/16 09:05:19;;;;;;;5.17;4.10;;;17.40;99.90;;;;;;4912472;29;21018;-76
2022/10/16 09:07:58;;;;;;;4.17;3.03;;;17.50;99.90;;;;;;4913078;29;20542;-77
2022/10/16 09:10:39;;;;;;;7.00;4.03;;;17.60;99.90;;;;;;4912887;29;20462;-74
2022/10/16 09:13:16;;;;;;;3.63;3.10;;;17.60;99.90;;;;;;4913076;29;20483;-77
2022/10/16 09:15:49;;;;;;;5.50;3.47;;;17.70;99.90;;;;;;4912789;29;20454;-76
2022/10/16 09:18:23;;;;;;;12.10;4.43;;;17.70;99.90;;;;;;4913160;29;20841;-77
2022/10/16 09:20:54;;;;;;;8.37;3.43;;;17.70;99.90;;;;;;4913721;29;20475;-77
2022/10/16 09:23:27;;;;;;;6.23;3.60;;;17.70;99.90;;;;;;4912868;29;20450;-77
2022/10/16 09:25:54;;;;;;;5.87;3.77;;;17.80;99.90;;;;;;4911983;29;20462;-75
2022/10/16 09:28:21;;;;;;;4.47;3.40;;;17.90;99.90;;;;;;4912567;29;20470;-76
2022/10/16 09:30:49;;;;;;;4.60;3.10;;;17.80;99.90;;;;;;4912254;29;20479;-75
2022/10/16 09:33:18;;;;;;;7.73;3.77;;;17.90;99.90;;;;;;4912239;29;20590;-73
2022/10/16 09:35:47;;;;;;;4.67;2.93;;;18.00;99.90;;;;;;4911966;29;20470;-74
2022/10/16 09:38:27;;;;;;;5.77;3.80;;;18.00;99.90;;;;;;4912305;29;20466;-77
2022/10/16 09:40:55;;;;;;;5.40;3.30;;;18.10;99.90;;;;;;4912263;29;20486;-74
2022/10/16 09:43:27;;;;;;;4.80;3.67;;;18.10;99.90;;;;;;4911943;29;21148;-76
2022/10/16 09:45:59;;;;;;;2.77;2.57;;;18.10;99.90;;;;;;4911584;29;20467;-76
2022/10/16 09:48:37;;;;;;;7.27;2.57;;;18.30;99.90;;;;;;4912091;29;20831;-76
2022/10/16 09:51:05;;;;;;;3.17;2.47;;;18.30;99.90;;;;;;4912057;29;20482;-76
2022/10/16 09:53:44;;;;;;;3.60;2.30;;;18.40;99.90;;;;;;4910281;29;20499;-75
2022/10/16 09:56:13;;;;;;;3.47;2.30;;;18.70;99.90;;;;;;4910966;29;20474;-75
2022/10/16 09:58:45;;;;;;;4.20;2.70;;;18.90;99.90;;;;;;4911875;29;20466;-76
2022/10/16 10:01:15;;;;;;;4.30;2.20;;;19.10;99.90;;;;;;4911521;29;20491;-76
2022/10/16 10:03:43;;;;;;;2.47;2.27;;;19.20;99.90;;;;;;4910966;29;20519;-75
2022/10/16 10:06:29;;;;;;;3.50;2.30;;;19.40;99.90;;;;;;4910979;29;20463;-77
2022/10/16 10:09:05;;;;;;;3.67;2.00;;;19.80;99.90;;;;;;4911424;29;20447;-75
2022/10/16 10:11:51;;;;;;;5.83;2.00;;;19.80;99.90;;;;;;4911703;29;20479;-76
2022/10/16 10:14:33;;;;;;;2.30;1.87;;;20.10;99.90;;;;;;4910685;29;20498;-75
2022/10/16 10:17:19;;;;;;;4.30;1.97;;;20.40;99.90;;;;;;4911890;29;20459;-75
2022/10/16 10:19:52;;;;;;;6.40;1.60;;;20.60;99.90;;;;;;4911039;29;20443;-74
2022/10/16 10:22:24;;;;;;;6.53;2.10;;;20.80;99.90;;;;;;4911196;29;20482;-76
2022/10/16 10:25:08;;;;;;;3.63;1.50;;;21.00;99.90;;;;;;4910473;29;20454;-76
2022/10/16 10:27:45;;;;;;;1.90;1.60;;;21.30;99.90;;;;;;4911282;29;20459;-76
2022/10/16 10:30:19;;;;;;;3.23;1.60;;;21.60;99.90;;;;;;4910286;29;20458;-76
2022/10/16 10:32:56;;;;;;;2.27;1.50;;;21.60;99.90;;;;;;4910822;29;20502;-74
2022/10/16 10:35:29;;;;;;;3.30;1.73;;;21.60;99.90;;;;;;4910466;29;20864;-73
2022/10/16 10:38:06;;;;;;;4.07;1.57;;;21.60;99.90;;;;;;4910843;29;20467;-75
2022/10/16 10:40:46;;;;;;;1.73;1.60;;;21.50;99.90;;;;;;4911227;29;20483;-73
2022/10/16 10:43:29;;;;;;;2.20;1.70;;;21.60;99.90;;;;;;4910749;29;20469;-76
2022/10/16 10:46:01;;;;;;;2.80;1.80;;;22.10;99.90;;;;;;4910355;29;20805;-77
2022/10/16 10:49:04;;;;;;;2.63;1.50;;;22.50;99.90;;;;;;4910898;29;20576;-76
2022/10/16 10:51:41;;;;;;;1.93;1.40;;;22.50;99.90;;;;;;4907221;29;21015;-73
2022/10/16 10:54:19;;;;;;;4.00;1.50;;;22.40;99.90;;;;;;4910453;29;20503;-77
2022/10/16 10:56:57;;;;;;;2.63;1.47;;;22.40;99.90;;;;;;4911155;29;20455;-73
2022/10/16 10:59:42;;;;;;;2.97;1.53;;;22.50;99.90;;;;;;4910817;29;20474;-74
2022/10/16 11:02:18;;;;;;;3.10;1.50;;;22.40;99.90;;;;;;4910591;29;20498;-75
2022/10/16 11:05:23;;;;;;;3.17;1.27;;;22.30;99.90;;;;;;4910078;29;20466;-74
2022/10/16 11:07:53;;;;;;;3.43;1.60;;;22.30;99.90;;;;;;4910644;29;20470;-76
2022/10/16 11:10:23;;;;;;;4.23;1.67;;;22.30;99.90;;;;;;4910192;29;21260;-75
2022/10/16 11:12:55;;;;;;;5.93;1.60;;;22.40;99.90;;;;;;4911007;29;20487;-75
2022/10/16 11:15:29;;;;;;;5.80;1.70;;;22.40;99.90;;;;;;4909621;29;20452;-72
2022/10/16 11:18:01;;;;;;;2.97;1.80;;;22.40;99.90;;;;;;4910189;29;20447;-74
2022/10/16 11:20:33;;;;;;;3.70;1.50;;;22.40;99.90;;;;;;4910254;29;20470;-73
2022/10/16 11:23:06;;;;;;;4.17;1.70;;;22.50;99.90;;;;;;4910050;29;20444;-75
2022/10/16 11:25:34;;;;;;;3.27;1.97;;;22.60;99.90;;;;;;4909831;29;20460;-71
2022/10/16 11:28:09;;;;;;;4.57;1.50;;;22.60;99.90;;;;;;4910661;29;20463;-72
2022/10/16 11:30:43;;;;;;;4.70;1.57;;;22.60;99.90;;;;;;4910146;29;20485;-72
2022/10/16 11:33:26;;;;;;;3.63;1.90;;;22.60;99.90;;;;;;4907877;29;20483;-71
2022/10/16 11:35:58;;;;;;;2.72;1.50;;;22.60;99.90;;;;;;4908180;29;20458;-72
2022/10/16 11:38:33;;;;;;;3.47;1.60;;;23.20;99.90;;;;;;4909891;29;20959;-73
2022/10/16 11:41:04;;;;;;;2.20;1.43;;;23.30;99.90;;;;;;4909691;29;20607;-75
2022/10/16 11:43:39;;;;;;;5.80;1.53;;;23.30;99.90;;;;;;4909798;29;20831;-73
2022/10/16 11:46:13;;;;;;;2.10;1.50;;;23.50;99.90;;;;;;4909391;29;20446;-73
2022/10/16 11:48:47;;;;;;;4.63;1.50;;;23.50;99.90;;;;;;4909198;29;20471;-74
2022/10/16 11:51:22;;;;;;;1.50;1.40;;;23.60;99.90;;;;;;4909696;29;20487;-72
2022/10/16 11:53:58;;;;;;;2.60;1.53;;;23.90;99.90;;;;;;4909728;29;20482;-73
2022/10/16 11:56:26;;;;;;;3.33;1.40;;;24.20;99.90;;;;;;4909426;29;20462;-73
2022/10/16 11:59:01;;;;;;;4.70;1.60;;;24.50;99.90;;;;;;4909315;29;20471;-73
2022/10/16 12:01:34;;;;;;;2.43;1.30;;;24.60;99.90;;;;;;4909756;29;20490;-74
2022/10/16 12:04:13;;;;;;;4.43;1.40;;;24.70;99.90;;;;;;4908483;29;20983;-73
2022/10/16 12:06:44;;;;;;;3.07;1.43;;;24.80;99.90;;;;;;4909401;29;21207;-73
2022/10/16 12:09:16;;;;;;;4.10;1.50;;;25.20;99.90;;;;;;4909219;29;20491;-73
2022/10/16 12:11:43;;;;;;;3.13;1.53;;;25.20;99.90;;;;;;4909478;29;20491;-73
2022/10/16 12:14:34;;;;;;;3.83;1.50;;;25.60;99.90;;;;;;4908606;29;20581;-74
2022/10/16 12:17:05;;;;;;;2.10;1.30;;;25.80;99.90;;;;;;4908447;29;20866;-73
2022/10/16 12:19:32;;;;;;;7.03;1.70;;;25.70;99.90;;;;;;4909578;29;20550;-74
2022/10/16 12:22:01;;;;;;;2.77;1.57;;;25.70;99.90;;;;;;4909433;29;20483;-73
2022/10/16 12:24:37;;;;;;;1.53;1.37;;;25.50;99.90;;;;;;4908057;29;20466;-73
2022/10/16 12:27:06;;;;;;;1.47;1.30;;;25.40;99.90;;;;;;4909595;29;20451;-73
2022/10/16 12:29:38;;;;;;;1.93;1.57;;;25.40;99.90;;;;;;4909025;29;20462;-73
2022/10/16 12:32:07;;;;;;;2.40;1.40;;;25.70;99.90;;;;;;4909017;29;20487;-73
2022/10/16 12:34:41;;;;;;;1.57;1.43;;;26.00;99.90;;;;;;4908758;29;20494;-72
2022/10/16 12:37:15;;;;;;;2.10;1.13;;;26.20;99.90;;;;;;4909508;29;20463;-72
2022/10/16 12:39:42;;;;;;;2.60;1.53;;;26.00;99.90;;;;;;4909474;29;20447;-73
2022/10/16 12:42:23;;;;;;;3.27;1.40;;;25.80;99.90;;;;;;4908792;29;20483;-73
2022/10/16 12:44:52;;;;;;;4.83;1.70;;;25.80;99.90;;;;;;4908343;29;20841;-73
2022/10/16 12:47:24;;;;;;;2.80;1.40;;;25.70;99.90;;;;;;4908753;29;20481;-73
2022/10/16 12:49:52;;;;;;;1.30;1.20;;;25.80;99.90;;;;;;4908624;29;20470;-73
2022/10/16 12:52:35;;;;;;;2.20;1.40;;;25.90;99.90;;;;;;4908507;29;21494;-75
2022/10/16 12:55:02;;;;;;;1.67;1.43;;;26.00;99.90;;;;;;4908297;29;20502;-76
2022/10/16 12:57:42;;;;;;;2.80;1.33;;;25.90;99.90;;;;;;4909024;29;20967;-73
2022/10/16 13:00:21;;;;;;;4.93;1.47;;;25.80;99.90;;;;;;4908810;29;20459;-75
2022/10/16 13:03:32;;;;;;;2.10;1.37;;;25.80;99.90;;;;;;4908547;29;20463;-75
2022/10/16 13:06:11;;;;;;;2.50;1.40;;;25.80;99.90;;;;;;4908673;29;20463;-74
2022/10/16 13:09:00;;;;;;;2.47;1.60;;;25.80;99.90;;;;;;4908329;29;20443;-75
2022/10/16 13:11:43;;;;;;;2.27;1.40;;;25.80;99.90;;;;;;4908669;29;20243;-74
2022/10/16 13:14:42;;;;;;;1.80;1.23;;;25.90;99.90;;;;;;4908093;29;20902;-75
2022/10/16 13:17:20;;;;;;;1.95;1.60;;;25.90;99.90;;;;;;4906661;29;20451;-77
2022/10/16 13:19:55;;;;;;;2.97;1.80;;;26.00;99.90;;;;;;4908846;29;20214;-77
2022/10/16 13:22:29;;;;;;;4.13;1.70;;;26.00;99.90;;;;;;4909130;29;20482;-73
2022/10/16 13:25:14;;;;;;;3.90;1.50;;;26.00;99.90;;;;;;4908075;29;20466;-76
2022/10/16 13:27:46;;;;;;;2.73;1.50;;;25.70;99.90;;;;;;4908951;29;21280;-77
2022/10/16 13:30:17;;;;;;;1.80;1.33;;;25.50;99.90;;;;;;4908606;29;21111;-75
2022/10/16 13:32:48;;;;;;;2.90;1.30;;;25.40;99.90;;;;;;4908699;29;20463;-76
2022/10/16 13:35:24;;;;;;;1.50;1.30;;;25.20;99.90;;;;;;4908430;29;20542;-77
2022/10/16 13:37:51;;;;;;;2.37;1.53;;;25.10;99.90;;;;;;4910535;29;20466;-76
2022/10/16 13:40:23;;;;;;;1.80;1.47;;;25.00;99.90;;;;;;4911009;29;20459;-76
2022/10/16 13:42:51;;;;;;;1.67;1.43;;;25.00;99.90;;;;;;4912160;29;20463;-77
2022/10/16 13:45:22;;;;;;;3.10;1.63;;;24.90;99.90;;;;;;4911597;29;20471;-74
2022/10/16 13:47:50;;;;;;;3.43;1.47;;;24.80;99.90;;;;;;4911357;29;20455;-75
2022/10/16 13:50:19;;;;;;;2.13;1.57;;;24.80;99.90;;;;;;4911390;29;20471;-75
2022/10/16 13:52:46;;;;;;;3.57;1.63;;;24.70;99.90;;;;;;4911711;29;20840;-76
2022/10/16 13:55:14;;;;;;;1.67;1.43;;;24.60;99.90;;;;;;4910931;29;20499;-75
2022/10/16 13:57:42;;;;;;;2.80;1.60;;;24.60;99.90;;;;;;4912205;29;20491;-76
2022/10/16 14:00:24;;;;;;;5.97;2.80;;;24.60;99.90;;;;;;4911496;29;20459;-76
2022/10/16 14:02:59;;;;;;;3.10;2.60;;;24.70;99.90;;;;;;4910772;29;20435;-76
2022/10/16 14:05:26;;;;;;;7.40;1.70;;;24.80;99.90;;;;;;4910074;29;20439;-77
2022/10/16 14:07:55;;;;;;;5.20;1.80;;;24.80;99.90;;;;;;4911455;29;20988;-73
2022/10/16 14:10:26;;;;;;;4.00;2.03;;;24.80;99.90;;;;;;4910412;29;20955;-76
2022/10/16 14:12:58;;;;;;;2.37;1.53;;;24.90;99.90;;;;;;4911511;29;20458;-75
2022/10/16 14:15:25;;;;;;;3.20;1.83;;;25.00;99.90;;;;;;4910545;29;20491;-74
2022/10/16 14:17:54;;;;;;;6.63;2.13;;;25.00;99.90;;;;;;4909330;29;20838;-76
2022/10/16 14:20:26;;;;;;;3.63;1.90;;;25.10;99.90;;;;;;4911126;29;21393;-74
2022/10/16 14:23:01;;;;;;;4.30;1.93;;;25.20;99.90;;;;;;4911286;29;20478;-76
2022/10/16 14:25:30;;;;;;;4.70;2.97;;;25.30;99.90;;;;;;4910744;29;20995;-77
2022/10/16 14:28:03;;;;;;;1.70;1.30;;;25.30;99.90;;;;;;4911203;29;20459;-75
2022/10/16 14:30:31;;;;;;;2.20;1.70;;;25.30;99.90;;;;;;4910556;29;20466;-77
2022/10/16 14:33:01;;;;;;;3.00;1.47;;;25.30;99.90;;;;;;4912502;29;20489;-78
2022/10/16 14:35:33;;;;;;;2.60;1.60;;;25.20;99.90;;;;;;4912470;29;20973;-74
2022/10/16 14:38:02;;;;;;;3.20;1.60;;;25.20;99.90;;;;;;4912315;29;20467;-76
2022/10/16 14:40:32;;;;;;;2.43;1.47;;;25.20;99.90;;;;;;4912118;29;20463;-76
2022/10/16 14:42:59;;;;;;;2.90;1.60;;;25.10;99.90;;;;;;4910985;29;20501;-75
2022/10/16 14:45:29;;;;;;;2.73;1.93;;;25.00;99.90;;;;;;4912756;29;20464;-76
2022/10/16 14:47:58;;;;;;;3.67;2.07;;;25.00;99.90;;;;;;4912443;29;20822;-77
2022/10/16 14:50:26;;;;;;;6.07;1.50;;;24.90;99.90;;;;;;4912086;29;20467;-74
2022/10/16 14:52:53;;;;;;;1.83;1.53;;;24.80;99.90;;;;;;4912145;29;21030;-77
2022/10/16 14:55:20;;;;;;;3.83;1.60;;;24.70;99.90;;;;;;4911083;29;20502;-77
2022/10/16 14:57:48;;;;;;;3.10;1.90;;;24.70;99.90;;;;;;4912056;29;20470;-76
2022/10/16 15:00:18;;;;;;;3.73;2.17;;;24.60;99.90;;;;;;4910913;29;20458;-75
2022/10/16 15:02:46;;;;;;;5.20;2.13;;;24.60;99.90;;;;;;4910513;29;20944;-75
2022/10/16 15:05:16;;;;;;;2.50;1.70;;;24.50;99.90;;;;;;4909941;29;21149;-75
2022/10/16 15:07:45;;;;;;;4.20;2.63;;;24.40;99.90;;;;;;4910967;29;20466;-75
2022/10/16 15:10:12;;;;;;;2.90;1.70;;;24.50;99.90;;;;;;4912587;29;20967;-77
2022/10/16 15:12:39;;;;;;;3.97;1.93;;;24.50;99.90;;;;;;4911129;29;20476;-78
2022/10/16 15:15:34;;;;;;;3.20;1.90;;;24.40;99.90;;;;;;4909880;29;20494;-76
2022/10/16 15:18:02;;;;;;;5.63;2.00;;;24.40;99.90;;;;;;4910319;29;20470;-75
2022/10/16 15:20:30;;;;;;;2.10;1.90;;;24.40;99.90;;;;;;4910528;29;20566;-77
2022/10/16 15:22:58;;;;;;;3.33;1.70;;;24.40;99.90;;;;;;4910795;29;20456;-76
2022/10/16 15:25:34;;;;;;;1.80;1.70;;;24.30;99.90;;;;;;4910319;29;20478;-77
2022/10/16 15:28:03;;;;;;;2.30;1.80;;;24.30;99.90;;;;;;4911007;29;20451;-77
2022/10/16 15:30:31;;;;;;;7.50;2.30;;;24.20;99.90;;;;;;4909658;29;20455;-77
2022/10/16 15:32:58;;;;;;;6.50;2.27;;;24.20;99.90;;;;;;4909962;29;20466;-76
2022/10/16 15:35:24;;;;;;;6.07;1.60;;;24.20;99.90;;;;;;4909621;29;21063;-76
2022/10/16 15:37:51;;;;;;;5.60;1.97;;;24.10;99.90;;;;;;4909974;29;20466;-76
2022/10/16 15:40:21;;;;;;;4.60;2.03;;;24.10;99.90;;;;;;4909969;29;21011;-77
2022/10/16 15:42:47;;;;;;;4.13;1.73;;;24.00;99.90;;;;;;4910129;29;20522;-73
2022/10/16 15:45:14;;;;;;;6.00;1.80;;;23.90;99.90;;;;;;4908707;29;20836;-76
2022/10/16 15:47:42;;;;;;;4.20;1.83;;;23.90;99.90;;;;;;4910230;29;20474;-77
2022/10/16 15:50:11;;;;;;;7.80;1.77;;;23.80;99.90;;;;;;4909628;29;20467;-75
2022/10/16 15:52:39;;;;;;;10.37;2.77;;;23.70;99.90;;;;;;4909397;29;20487;-77
2022/10/16 15:55:06;;;;;;;3.70;2.40;;;23.60;99.90;;;;;;4909258;29;20512;-75
2022/10/16 15:57:34;;;;;;;6.40;2.20;;;23.50;99.90;;;;;;4909848;29;20458;-75
2022/10/16 16:00:01;;;;;;;5.17;2.67;;;23.40;99.90;;;;;;4908436;29;20463;-74
2022/10/16 16:02:30;;;;;;;5.67;2.27;;;23.40;99.90;;;;;;4909176;29;20497;-75
2022/10/16 16:04:56;;;;;;;5.93;2.47;;;23.40;99.90;;;;;;4909084;29;20554;-75
2022/10/16 16:07:23;;;;;;;5.43;2.43;;;23.30;99.90;;;;;;4909138;29;20467;-75
2022/10/16 16:09:50;;;;;;;5.37;2.57;;;23.20;99.90;;;;;;4909632;29;20467;-76
2022/10/16 16:12:17;;;;;;;7.47;2.10;;;23.20;99.90;;;;;;4909148;29;20518;-75
2022/10/16 16:14:48;;;;;;;3.33;2.30;;;23.10;99.90;;;;;;4906930;29;20510;-76
2022/10/16 16:17:15;;;;;;;4.53;1.97;;;23.00;99.90;;;;;;4909753;29;20467;-76
2022/10/16 16:19:41;;;;;;;3.90;1.80;;;22.90;99.90;;;;;;4908898;29;21171;-76
2022/10/16 16:22:08;;;;;;;6.70;2.10;;;22.90;99.90;;;;;;4908723;29;21003;-79
2022/10/16 16:24:35;;;;;;;3.83;1.97;;;22.90;99.90;;;;;;4907755;29;20474;-75
2022/10/16 16:27:02;;;;;;;6.50;2.27;;;22.80;99.90;;;;;;4908904;29;20463;-74
2022/10/16 16:29:29;;;;;;;6.20;2.13;;;22.70;99.90;;;;;;4908718;29;21292;-76
2022/10/16 16:31:59;;;;;;;6.10;2.43;;;22.60;99.90;;;;;;4909553;29;20495;-76
2022/10/16 16:34:26;;;;;;;5.90;2.20;;;22.60;99.90;;;;;;4908560;29;20824;-75
2022/10/16 16:36:52;;;;;;;3.43;2.30;;;22.50;99.90;;;;;;4909509;29;20494;-75
2022/10/16 16:39:20;;;;;;;2.90;2.23;;;22.40;99.90;;;;;;4909185;29;20470;-75
2022/10/16 16:41:47;;;;;;;5.77;2.67;;;22.30;99.90;;;;;;4909753;29;20490;-77
2022/10/16 16:44:15;;;;;;;3.23;2.20;;;22.20;99.90;;;;;;4908891;29;20465;-78
2022/10/16 16:46:43;;;;;;;3.83;2.70;;;22.20;99.90;;;;;;4909632;29;20475;-76
2022/10/16 16:49:13;;;;;;;10.80;3.00;;;22.10;99.90;;;;;;4909719;29;20467;-78
2022/10/16 16:51:40;;;;;;;5.07;2.10;;;22.10;99.90;;;;;;4908903;29;20489;-76
2022/10/16 16:54:07;;;;;;;7.57;3.00;;;22.00;99.90;;;;;;4908549;29;20474;-76
2022/10/16 16:56:35;;;;;;;10.50;4.57;;;21.90;99.90;;;;;;4909521;29;20507;-76
2022/10/16 16:59:02;;;;;;;14.57;7.20;;;21.90;99.90;;;;;;4908626;29;20459;-76
2022/10/16 17:01:29;;;;;;;11.63;5.00;;;21.80;99.90;;;;;;4908726;29;20497;-78
2022/10/16 17:03:58;;;;;;;6.30;4.37;;;21.80;99.90;;;;;;4910702;29;21156;-71